Saint-Leon-De-Standon, Canada
Current Conditions -  °F | °C
As of 7:16 PM on Sunday 23 Nov 2014 (Local Time) from CYQB Reporting Station
Moderate Fog Moderate Fog  
Wind Chill: 36°   Ceiling: 100
Heat Index: 36°   Visibility: 0.12mi
Dew Point: 34°   Wind: 3mph
Humidity: 93%   Direction: 30°NNE
Pressure: 30.06"   Gusts: NA
Location:  46.48°N, 70.62°W
Report Text: CYQB 240016Z 03003KT 1/8SM R06/1600FT/N FG VV001 02/01 A3006 RMK FG8 SLP182
Loading
Personal Weather Stations






























Interactive Weather Map New forecast layout! Learn more

10-Day Weather Forecast

Advertisements
Track Severe Weather on mobile